createdAt,value
2018-05-16T00:00:13.330Z,7.20
2018-05-16T00:02:06.877Z,7.90
2018-05-16T00:03:06.900Z,7.30
2018-05-16T00:05:00.449Z,8.10
2018-05-16T00:06:00.471Z,7.70
2018-05-16T00:07:54.017Z,7.40
2018-05-16T00:08:54.041Z,7.10
2018-05-16T00:10:48.047Z,7.80
2018-05-16T00:11:47.612Z,7.70
2018-05-16T00:13:41.160Z,7.40
2018-05-16T00:14:41.182Z,7.60
2018-05-16T00:16:34.730Z,7.70
2018-05-16T00:17:34.753Z,7.50
2018-05-16T00:19:28.300Z,8.20
2018-05-16T00:20:28.322Z,7.30
2018-05-16T00:22:21.873Z,7.20
2018-05-16T00:23:21.897Z,7.30
2018-05-16T00:25:15.440Z,7.30
2018-05-16T00:26:15.464Z,7.90
2018-05-16T00:28:09.012Z,7.70
2018-05-16T00:29:09.034Z,7.70
2018-05-16T00:31:02.581Z,7.90
2018-05-16T00:32:02.605Z,7.70
2018-05-16T00:33:56.153Z,7.30
2018-05-16T00:34:56.174Z,8.20
2018-05-16T00:36:49.724Z,7.80
2018-05-16T00:37:49.746Z,7.70
2018-05-16T00:39:43.292Z,7.60
2018-05-16T00:40:43.315Z,7.80
2018-05-16T00:42:36.864Z,7.60
2018-05-16T00:43:36.886Z,7.20
2018-05-16T00:45:42.416Z,8.00
2018-05-16T00:46:42.134Z,7.50
2018-05-16T00:48:35.677Z,8.10
2018-05-16T00:49:35.700Z,7.30
2018-05-16T00:51:29.255Z,7.20
2018-05-16T00:52:29.272Z,7.30
2018-05-16T00:54:22.824Z,7.50
2018-05-16T00:55:22.841Z,8.60
2018-05-16T00:57:16.390Z,7.60
2018-05-16T00:58:16.413Z,7.40
2018-05-16T01:00:09.961Z,7.70
2018-05-16T01:01:09.984Z,8.00
2018-05-16T01:03:03.532Z,7.80
2018-05-16T01:04:03.555Z,7.40
2018-05-16T01:05:57.101Z,7.90
2018-05-16T01:06:57.124Z,8.10
2018-05-16T01:08:50.673Z,7.90
2018-05-16T01:09:50.694Z,7.90
2018-05-16T01:11:44.244Z,8.40
2018-05-16T01:12:44.265Z,8.10
2018-05-16T01:14:37.813Z,7.90
2018-05-16T01:15:37.835Z,8.30
2018-05-16T01:17:31.383Z,7.70
2018-05-16T01:18:31.410Z,7.70
2018-05-16T01:20:24.953Z,7.50
2018-05-16T01:21:24.976Z,7.40
2018-05-16T01:23:18.524Z,7.80
2018-05-16T01:24:18.545Z,7.80
2018-05-16T01:26:12.100Z,7.60
2018-05-16T01:27:12.120Z,7.60
2018-05-16T01:29:05.665Z,7.50
2018-05-16T01:30:05.689Z,7.80
2018-05-16T01:31:59.235Z,7.70
2018-05-16T01:32:59.257Z,7.80
2018-05-16T01:34:52.806Z,7.40
2018-05-16T01:35:52.829Z,7.70
2018-05-16T01:37:46.376Z,7.70
2018-05-16T01:38:46.399Z,8.10
2018-05-16T01:40:39.946Z,7.70
2018-05-16T01:41:39.970Z,7.70
2018-05-16T01:43:33.518Z,10.40
2018-05-16T01:44:33.558Z,7.80
2018-05-16T01:46:27.089Z,7.60
2018-05-16T01:47:27.111Z,7.60
2018-05-16T01:49:20.665Z,7.20
2018-05-16T01:50:20.682Z,7.60
2018-05-16T01:52:14.229Z,7.90
2018-05-16T01:53:14.251Z,7.20
2018-05-16T01:55:07.806Z,7.30
2018-05-16T01:56:07.821Z,7.10
2018-05-16T01:58:01.371Z,6.80
2018-05-16T01:59:01.397Z,7.20
2018-05-16T02:00:55.405Z,7.10
2018-05-16T02:01:54.960Z,6.90
2018-05-16T02:03:48.576Z,6.60
2018-05-16T02:04:48.531Z,7.70
2018-05-16T02:06:42.093Z,6.70
2018-05-16T02:07:42.102Z,7.60
2018-05-16T02:09:35.680Z,6.70
2018-05-16T02:10:35.674Z,6.60
2018-05-16T02:12:29.262Z,6.50
2018-05-16T02:13:29.244Z,6.90
2018-05-16T02:15:22.809Z,6.80
2018-05-16T02:16:22.813Z,6.20
2018-05-16T02:18:16.393Z,7.00
2018-05-16T02:19:16.389Z,6.50
2018-05-16T02:21:09.998Z,6.60
2018-05-16T02:22:09.955Z,6.20
2018-05-16T02:24:03.552Z,7.20
2018-05-16T02:25:03.531Z,6.80
2018-05-16T02:26:57.179Z,7.20
2018-05-16T02:27:57.141Z,6.80
2018-05-16T02:29:50.724Z,6.40
2018-05-16T02:30:50.676Z,6.40
2018-05-16T02:32:44.233Z,7.20
2018-05-16T02:33:44.239Z,6.20
2018-05-16T02:35:37.855Z,6.10
2018-05-16T02:36:37.808Z,6.10
2018-05-16T02:38:31.391Z,6.90
2018-05-16T02:39:31.379Z,6.50
2018-05-16T02:41:25.026Z,6.20
2018-05-16T02:42:24.948Z,6.40
2018-05-16T02:44:18.600Z,6.10
2018-05-16T02:45:18.518Z,5.90
2018-05-16T02:46:18.558Z,6.10
2018-05-16T02:47:18.591Z,6.50
2018-05-16T02:48:18.621Z,6.10
2018-05-16T02:49:18.656Z,6.00
2018-05-16T02:50:18.691Z,6.20
2018-05-16T02:51:18.725Z,6.40
2018-05-16T02:52:18.791Z,5.70
2018-05-16T02:53:18.794Z,6.00
2018-05-16T02:55:18.885Z,5.60
2018-05-16T02:56:18.894Z,5.90
2018-05-16T02:57:18.930Z,6.30
2018-05-16T02:58:18.963Z,6.20
2018-05-16T02:59:18.998Z,6.50
2018-05-16T03:00:19.033Z,6.20
2018-05-16T03:01:19.066Z,6.00
2018-05-16T03:02:19.101Z,5.90
2018-05-16T03:03:19.152Z,5.90
2018-05-16T03:04:19.168Z,6.00
2018-05-16T03:05:19.224Z,6.30
2018-05-16T03:06:19.260Z,5.70
2018-05-16T03:07:19.331Z,5.80
2018-05-16T03:08:19.307Z,6.00
2018-05-16T03:09:19.338Z,6.10
2018-05-16T03:10:19.373Z,5.80
2018-05-16T03:11:19.413Z,6.00
2018-05-16T03:12:19.441Z,6.20
2018-05-16T03:13:19.478Z,5.70
2018-05-16T03:14:19.519Z,5.80
2018-05-16T03:15:19.544Z,5.70
2018-05-16T03:16:19.579Z,5.80
2018-05-16T03:17:19.621Z,7.90
2018-05-16T03:18:19.649Z,6.20
2018-05-16T03:19:19.683Z,11.00
2018-05-16T03:20:19.713Z,6.50
2018-05-16T03:21:19.797Z,6.10
2018-05-16T03:22:19.795Z,6.40
2018-05-16T03:23:19.818Z,5.70
2018-05-16T03:24:19.852Z,5.40
2018-05-16T03:25:19.888Z,6.50
2018-05-16T03:26:19.920Z,5.70
2018-05-16T03:27:19.953Z,5.70
2018-05-16T03:28:19.988Z,6.70
2018-05-16T03:29:20.021Z,6.30
2018-05-16T03:30:20.056Z,6.70
2018-05-16T03:31:20.092Z,6.10
2018-05-16T03:32:20.128Z,6.50
2018-05-16T03:33:20.161Z,6.00
2018-05-16T03:34:20.194Z,5.70
2018-05-16T03:35:20.231Z,6.40
2018-05-16T03:36:20.261Z,6.20
2018-05-16T03:37:20.295Z,5.90
2018-05-16T03:38:20.330Z,6.00
2018-05-16T03:39:20.365Z,6.60
2018-05-16T03:40:20.398Z,6.20
2018-05-16T03:41:20.433Z,6.50
2018-05-16T03:42:20.467Z,17.80
2018-05-16T03:43:20.501Z,11.30
2018-05-16T03:44:20.535Z,9.00
2018-05-16T03:45:20.568Z,7.10
2018-05-16T03:46:20.603Z,8.20
2018-05-16T03:47:20.638Z,7.50
2018-05-16T03:48:20.672Z,7.70
2018-05-16T03:49:20.705Z,13.10
2018-05-16T03:50:20.739Z,9.00
2018-05-16T03:51:20.774Z,10.70
2018-05-16T03:52:20.808Z,8.30
2018-05-16T03:53:20.842Z,6.40
2018-05-16T03:54:20.877Z,6.60
2018-05-16T03:55:20.911Z,6.10
2018-05-16T03:56:20.945Z,7.40
2018-05-16T03:57:20.979Z,8.40
2018-05-16T03:58:21.013Z,6.40
2018-05-16T03:59:21.047Z,7.30
2018-05-16T04:00:21.080Z,6.50
2018-05-16T04:01:21.115Z,7.70
2018-05-16T04:02:21.205Z,7.30
2018-05-16T04:03:21.183Z,6.60
2018-05-16T04:04:21.218Z,9.20
2018-05-16T04:05:21.251Z,8.40
2018-05-16T04:06:21.287Z,6.20
2018-05-16T04:07:21.321Z,7.60
2018-05-16T04:08:21.366Z,7.10
2018-05-16T04:09:21.388Z,6.50
2018-05-16T04:10:21.422Z,8.60
2018-05-16T04:11:21.458Z,8.70
2018-05-16T04:12:21.491Z,6.70
2018-05-16T04:13:21.528Z,6.10
2018-05-16T04:14:21.560Z,9.30
2018-05-16T04:15:21.595Z,8.40
2018-05-16T04:16:21.631Z,8.50
2018-05-16T04:17:21.661Z,7.80
2018-05-16T04:18:21.697Z,7.50
2018-05-16T04:19:21.731Z,10.00
2018-05-16T04:20:21.764Z,10.20
2018-05-16T04:21:21.800Z,8.30
2018-05-16T04:22:21.833Z,7.40
2018-05-16T04:23:21.869Z,7.50
2018-05-16T04:24:21.901Z,8.90
2018-05-16T04:25:21.938Z,9.00
2018-05-16T04:26:21.969Z,7.30
2018-05-16T04:27:22.003Z,8.30
2018-05-16T04:28:22.165Z,8.80
2018-05-16T04:29:22.073Z,7.80
2018-05-16T04:30:22.106Z,6.90
2018-05-16T04:31:22.142Z,6.50
2018-05-16T04:32:22.179Z,6.90
2018-05-16T04:33:22.259Z,7.40
2018-05-16T04:34:22.242Z,7.80
2018-05-16T04:35:22.280Z,6.10
2018-05-16T04:36:22.310Z,7.40
2018-05-16T04:37:22.346Z,7.80
2018-05-16T04:38:22.379Z,7.50
2018-05-16T04:39:22.462Z,6.30
2018-05-16T04:40:22.454Z,7.20
2018-05-16T04:41:22.484Z,6.80
2018-05-16T04:42:22.520Z,6.50
2018-05-16T04:43:22.550Z,5.60
2018-05-16T04:44:22.584Z,5.70
2018-05-16T04:45:22.620Z,5.70
2018-05-16T04:46:22.654Z,7.70
2018-05-16T04:47:22.686Z,7.80
2018-05-16T04:48:22.720Z,7.10
2018-05-16T04:49:22.754Z,6.10
2018-05-16T04:50:22.794Z,6.90
2018-05-16T04:51:22.823Z,8.40
2018-05-16T04:52:22.856Z,8.90
2018-05-16T04:53:22.891Z,5.90
2018-05-16T04:54:22.928Z,8.00
2018-05-16T04:55:22.960Z,6.40
2018-05-16T04:56:22.994Z,6.70
2018-05-16T04:57:23.029Z,6.90
2018-05-16T04:58:23.062Z,8.20
2018-05-16T04:59:23.099Z,6.20
2018-05-16T05:00:23.131Z,5.90
2018-05-16T05:01:23.167Z,6.50
2018-05-16T05:02:23.200Z,7.10
2018-05-16T05:03:23.239Z,8.20
2018-05-16T05:04:23.271Z,6.80
2018-05-16T05:05:23.303Z,6.20
2018-05-16T05:06:23.336Z,5.90
2018-05-16T05:07:23.372Z,6.70
2018-05-16T05:08:23.405Z,6.40
2018-05-16T05:09:23.440Z,5.90
2018-05-16T05:10:23.474Z,6.00
2018-05-16T05:11:23.512Z,6.10
2018-05-16T05:12:23.548Z,5.70
2018-05-16T05:13:23.577Z,8.30
2018-05-16T05:14:23.680Z,5.70
2018-05-16T05:15:23.645Z,5.80
2018-05-16T05:16:23.680Z,7.30
2018-05-16T05:17:23.716Z,9.50
2018-05-16T05:18:23.876Z,7.10
2018-05-16T05:19:23.782Z,7.20
2018-05-16T05:20:23.818Z,7.30
2018-05-16T05:21:23.850Z,6.50
2018-05-16T05:22:23.961Z,6.60
2018-05-16T05:23:23.920Z,6.20
2018-05-16T05:24:23.956Z,6.10
2018-05-16T05:25:23.989Z,6.50
2018-05-16T05:26:24.022Z,5.90
2018-05-16T05:27:24.057Z,6.70
2018-05-16T05:28:24.090Z,7.50
2018-05-16T05:29:24.127Z,7.00
2018-05-16T05:30:24.212Z,11.80
2018-05-16T05:31:24.194Z,6.90
2018-05-16T05:32:24.280Z,7.40
2018-05-16T05:33:24.262Z,6.40
2018-05-16T05:34:24.297Z,6.00
2018-05-16T05:35:24.331Z,6.50
2018-05-16T05:36:24.364Z,6.40
2018-05-16T05:37:24.399Z,5.60
2018-05-16T05:38:24.436Z,7.70
2018-05-16T05:39:24.466Z,6.40
2018-05-16T05:40:24.502Z,5.90
2018-05-16T05:41:24.537Z,5.40
2018-05-16T05:42:24.573Z,7.80
2018-05-16T05:43:24.632Z,7.80
2018-05-16T05:44:24.640Z,5.60
2018-05-16T05:45:24.674Z,6.90
2018-05-16T05:46:24.708Z,8.60
2018-05-16T05:47:24.743Z,6.30
2018-05-16T05:48:24.777Z,8.80
2018-05-16T05:49:24.811Z,8.40
2018-05-16T05:50:24.850Z,17.80
2018-05-16T05:51:24.883Z,22.50
2018-05-16T05:52:24.913Z,49.40
2018-05-16T05:53:24.948Z,52.90
2018-05-16T05:54:25.009Z,70.60
2018-05-16T05:55:25.017Z,63.10
2018-05-16T05:56:25.051Z,69.50
2018-05-16T05:57:25.087Z,70.70
2018-05-16T05:58:25.126Z,81.10
2018-05-16T05:59:25.155Z,70.70
2018-05-16T06:00:25.189Z,65.30
2018-05-16T06:01:25.225Z,73.90
2018-05-16T06:02:25.258Z,96.50
2018-05-16T06:03:25.292Z,120.50
2018-05-16T06:04:25.356Z,122.10
2018-05-16T06:05:25.413Z,108.10
2018-05-16T06:06:25.400Z,97.90
2018-05-16T06:07:25.454Z,90.60
2018-05-16T06:08:25.463Z,87.10
2018-05-16T06:09:25.498Z,88.30
2018-05-16T06:10:25.534Z,81.10
2018-05-16T06:11:25.568Z,88.70
2018-05-16T06:12:25.601Z,84.20
2018-05-16T06:13:25.638Z,87.60
2018-05-16T06:14:25.671Z,77.20
2018-05-16T06:15:25.705Z,84.70
2018-05-16T06:16:25.743Z,79.90
2018-05-16T06:17:25.776Z,81.40
2018-05-16T06:18:25.808Z,78.10
2018-05-16T06:19:25.907Z,76.40
2018-05-16T06:20:25.877Z,73.10
2018-05-16T06:21:25.914Z,82.10
2018-05-16T06:22:25.945Z,71.00
2018-05-16T06:23:25.980Z,76.00
2018-05-16T06:24:26.014Z,71.70
2018-05-16T06:25:26.049Z,74.50
2018-05-16T06:26:26.085Z,68.90
2018-05-16T06:27:26.281Z,69.80
2018-05-16T06:28:26.154Z,70.30
2018-05-16T06:29:26.189Z,65.80
2018-05-16T06:30:26.218Z,67.70
2018-05-16T06:31:26.257Z,64.90
2018-05-16T06:32:26.290Z,60.80
2018-05-16T06:33:26.325Z,63.00
2018-05-16T06:34:26.360Z,63.00
2018-05-16T06:35:26.395Z,58.00
2018-05-16T06:36:26.427Z,66.90
2018-05-16T06:37:26.465Z,59.10
2018-05-16T06:38:26.497Z,56.90
2018-05-16T06:39:26.535Z,60.50
2018-05-16T06:40:26.569Z,58.50
2018-05-16T06:41:26.604Z,60.70
2018-05-16T06:42:26.636Z,51.80
2018-05-16T06:43:26.672Z,59.30
2018-05-16T06:44:26.705Z,61.30
2018-05-16T06:45:26.741Z,57.80
2018-05-16T06:46:26.773Z,60.30
2018-05-16T06:47:26.808Z,58.60
2018-05-16T06:48:26.841Z,57.70
2018-05-16T06:49:26.884Z,56.90
2018-05-16T06:50:26.914Z,59.00
2018-05-16T06:51:26.950Z,53.90
2018-05-16T06:52:26.980Z,56.40
2018-05-16T06:53:27.016Z,54.00
2018-05-16T06:54:27.049Z,50.30
2018-05-16T06:55:27.084Z,51.30
2018-05-16T06:56:27.123Z,54.40
2018-05-16T06:57:27.152Z,48.30
2018-05-16T06:58:27.191Z,51.90
2018-05-16T06:59:27.222Z,47.60
2018-05-16T07:00:27.256Z,51.60
2018-05-16T07:01:27.293Z,47.70
2018-05-16T07:02:27.326Z,48.00
2018-05-16T07:03:27.362Z,49.60
2018-05-16T07:04:27.393Z,45.60
2018-05-16T07:05:27.428Z,49.70
2018-05-16T07:06:27.463Z,46.80
2018-05-16T07:07:27.498Z,49.90
2018-05-16T07:08:27.532Z,44.40
2018-05-16T07:09:27.570Z,47.60
2018-05-16T07:10:27.601Z,48.90
2018-05-16T07:11:27.637Z,52.60
2018-05-16T07:12:27.670Z,44.10
2018-05-16T07:13:27.748Z,42.60
2018-05-16T07:14:27.739Z,46.60
2018-05-16T07:15:27.813Z,49.30
2018-05-16T07:16:27.808Z,44.80
2018-05-16T07:17:27.850Z,42.40
2018-05-16T07:18:27.879Z,45.20
2018-05-16T07:19:27.912Z,43.20
2018-05-16T07:20:27.946Z,39.10
2018-05-16T07:21:27.982Z,45.50
2018-05-16T07:22:28.030Z,44.20
2018-05-16T07:23:28.068Z,42.50
2018-05-16T07:24:28.086Z,42.10
2018-05-16T07:25:28.119Z,41.90
2018-05-16T07:26:28.154Z,43.00
2018-05-16T07:27:28.188Z,44.80
2018-05-16T07:28:28.223Z,40.40
2018-05-16T07:29:28.256Z,36.70
2018-05-16T07:30:28.291Z,40.80
2018-05-16T07:31:28.329Z,40.90
2018-05-16T07:32:28.375Z,35.90
2018-05-16T07:33:28.396Z,40.20
2018-05-16T07:34:28.430Z,38.50
2018-05-16T07:35:28.464Z,35.50
2018-05-16T07:36:28.502Z,39.80
2018-05-16T07:37:28.533Z,39.70
2018-05-16T07:38:28.570Z,35.50
2018-05-16T07:39:28.602Z,39.50
2018-05-16T07:40:28.638Z,44.10
2018-05-16T07:41:28.672Z,35.60
2018-05-16T07:42:28.705Z,35.30
2018-05-16T07:43:28.743Z,36.60
2018-05-16T07:44:28.773Z,37.50
2018-05-16T07:45:28.809Z,35.90
2018-05-16T07:46:28.843Z,35.20
2018-05-16T07:47:28.879Z,34.20
2018-05-16T07:48:28.913Z,35.10
2018-05-16T07:49:28.949Z,35.50
2018-05-16T07:50:29.002Z,33.30
2018-05-16T07:51:29.017Z,33.00
2018-05-16T07:52:29.051Z,36.00
2018-05-16T07:53:29.084Z,38.50
2018-05-16T07:54:29.124Z,37.60
2018-05-16T07:55:29.154Z,35.50
2018-05-16T07:56:29.189Z,34.80
2018-05-16T07:57:29.223Z,32.10
2018-05-16T07:58:29.258Z,33.60
2018-05-16T07:59:29.293Z,32.00
2018-05-16T08:00:29.326Z,31.30
2018-05-16T08:01:29.360Z,34.50
2018-05-16T08:02:29.396Z,35.00
2018-05-16T08:03:29.429Z,34.30
2018-05-16T08:04:29.469Z,33.50
2018-05-16T08:05:29.504Z,32.30
2018-05-16T08:06:29.533Z,34.60
2018-05-16T08:07:29.569Z,37.00
2018-05-16T08:08:29.601Z,35.10
2018-05-16T08:09:29.642Z,28.50
2018-05-16T08:10:29.674Z,32.10
2018-05-16T08:11:29.708Z,31.80
2018-05-16T08:12:29.743Z,34.60
2018-05-16T08:13:29.778Z,31.10
2018-05-16T08:14:29.810Z,31.00
2018-05-16T08:15:29.845Z,29.20
2018-05-16T08:16:29.878Z,29.00
2018-05-16T08:17:29.914Z,30.60
2018-05-16T08:18:29.948Z,30.00
2018-05-16T08:20:23.418Z,30.20
2018-05-16T08:21:23.442Z,31.00
2018-05-16T08:23:16.912Z,29.90
2018-05-16T08:24:16.938Z,28.60
2018-05-16T08:26:10.421Z,28.90
2018-05-16T08:27:10.439Z,29.70
2018-05-16T08:29:03.908Z,32.30
2018-05-16T08:30:03.934Z,33.00
2018-05-16T08:31:57.408Z,31.50
2018-05-16T08:32:57.426Z,26.80
2018-05-16T08:34:50.910Z,29.00
2018-05-16T08:35:50.935Z,26.90
2018-05-16T08:37:44.405Z,27.40
2018-05-16T08:38:44.427Z,29.70
2018-05-16T08:40:37.911Z,25.70
2018-05-16T08:41:37.932Z,30.40
2018-05-16T08:43:31.416Z,26.90
2018-05-16T08:44:31.436Z,31.10
2018-05-16T08:46:25.442Z,28.00
2018-05-16T08:47:24.940Z,25.80
2018-05-16T08:49:18.425Z,27.70
2018-05-16T08:50:18.439Z,24.90
2018-05-16T08:52:11.920Z,29.00
2018-05-16T08:53:11.943Z,26.70
2018-05-16T08:55:05.951Z,26.80
2018-05-16T08:56:05.447Z,24.60
2018-05-16T08:57:58.917Z,26.10
2018-05-16T08:58:58.939Z,25.40
2018-05-16T09:00:52.482Z,24.90
2018-05-16T09:01:52.483Z,24.60
2018-05-16T09:03:45.930Z,28.20
2018-05-16T09:04:45.954Z,27.30
2018-05-16T09:06:39.438Z,25.70
2018-05-16T09:07:39.460Z,25.40
2018-05-16T09:09:32.945Z,23.70
2018-05-16T09:10:32.960Z,26.40
2018-05-16T09:12:26.963Z,22.90
2018-05-16T09:13:26.463Z,24.80
2018-05-16T09:15:19.932Z,21.70
2018-05-16T09:16:19.959Z,25.00
2018-05-16T09:18:13.439Z,22.60
2018-05-16T09:19:13.459Z,24.40
2018-05-16T09:21:06.934Z,22.40
2018-05-16T09:22:06.957Z,23.30
2018-05-16T09:24:00.444Z,21.00
2018-05-16T09:25:00.462Z,25.60
2018-05-16T09:26:53.942Z,22.80
2018-05-16T09:27:53.965Z,22.00
2018-05-16T09:29:46.953Z,24.40
2018-05-16T09:30:46.977Z,23.40
2018-05-16T09:32:40.457Z,23.70
2018-05-16T09:33:40.479Z,25.20
2018-05-16T09:35:34.965Z,21.00
2018-05-16T09:36:34.982Z,23.00
2018-05-16T09:38:28.468Z,25.40
2018-05-16T09:39:28.492Z,20.20
2018-05-16T09:41:21.969Z,21.90
2018-05-16T09:42:21.989Z,23.50
2018-05-16T09:44:15.460Z,23.40
2018-05-16T09:45:15.483Z,20.40
2018-05-16T09:47:08.962Z,21.00
2018-05-16T09:48:08.985Z,19.60
2018-05-16T09:50:02.489Z,22.00
2018-05-16T09:51:01.995Z,20.90
2018-05-16T09:52:55.465Z,19.40
2018-05-16T09:53:55.488Z,20.30
2018-05-16T09:55:49.494Z,21.50
2018-05-16T09:56:48.994Z,21.60
2018-05-16T09:58:42.478Z,19.80
2018-05-16T09:59:42.497Z,19.80
2018-05-16T10:01:35.976Z,21.20
2018-05-16T10:02:36.004Z,19.60
2018-05-16T10:04:29.479Z,19.80
2018-05-16T10:05:29.504Z,21.10
2018-05-16T10:07:22.972Z,19.20
2018-05-16T10:08:22.998Z,19.40
2018-05-16T10:10:16.484Z,20.40
2018-05-16T10:11:16.504Z,19.40
2018-05-16T10:13:09.984Z,17.00
2018-05-16T10:14:10.007Z,19.60
2018-05-16T10:16:03.483Z,19.50
2018-05-16T10:17:03.593Z,17.80
2018-05-16T10:18:56.982Z,20.60
2018-05-16T10:19:57.003Z,21.90
2018-05-16T10:21:50.485Z,19.30
2018-05-16T10:22:50.507Z,20.20
2018-05-16T10:24:43.990Z,19.70
2018-05-16T10:25:44.011Z,19.10
2018-05-16T10:27:37.496Z,18.40
2018-05-16T10:28:37.515Z,18.70
2018-05-16T10:30:30.988Z,18.60
2018-05-16T10:31:31.010Z,18.60
2018-05-16T10:33:24.500Z,20.30
2018-05-16T10:34:24.519Z,19.80
2018-05-16T10:36:17.997Z,18.50
2018-05-16T10:37:18.017Z,18.70
2018-05-16T10:39:11.502Z,18.10
2018-05-16T10:40:11.522Z,18.80
2018-05-16T10:42:05.003Z,16.80
2018-05-16T10:43:05.025Z,18.60
2018-05-16T10:44:58.510Z,16.80
2018-05-16T10:45:58.532Z,17.90
2018-05-16T10:47:52.016Z,17.20
2018-05-16T10:48:52.030Z,17.50
2018-05-16T10:50:45.503Z,17.30
2018-05-16T10:51:45.524Z,17.70
2018-05-16T10:53:39.005Z,19.10
2018-05-16T10:54:39.029Z,17.40
2018-05-16T10:56:32.516Z,17.50
2018-05-16T10:57:32.533Z,18.00
2018-05-16T10:59:26.012Z,19.00
2018-05-16T11:00:26.037Z,19.60
2018-05-16T11:02:19.520Z,17.60
2018-05-16T11:03:19.546Z,17.60
2018-05-16T11:05:13.022Z,18.70
2018-05-16T11:06:13.041Z,16.10
2018-05-16T11:08:06.523Z,16.50
2018-05-16T11:09:06.544Z,19.00
2018-05-16T11:11:00.031Z,17.00
2018-05-16T11:12:00.049Z,16.90
2018-05-16T11:13:53.039Z,17.50
2018-05-16T11:14:53.057Z,16.10
2018-05-16T11:16:46.601Z,16.60
2018-05-16T11:17:46.620Z,17.30
2018-05-16T11:19:40.104Z,14.60
2018-05-16T11:20:40.127Z,16.00
2018-05-16T11:22:33.604Z,15.30
2018-05-16T11:23:33.626Z,15.00
2018-05-16T11:25:27.106Z,16.30
2018-05-16T11:26:27.130Z,19.40
2018-05-16T11:28:20.651Z,15.50
2018-05-16T11:29:20.634Z,16.90
2018-05-16T11:31:14.206Z,16.70
2018-05-16T11:32:14.128Z,16.20
2018-05-16T11:34:07.642Z,16.10
2018-05-16T11:35:07.661Z,14.70
2018-05-16T11:37:01.114Z,15.40
2018-05-16T11:38:01.192Z,16.90
2018-05-16T11:39:54.612Z,17.00
2018-05-16T11:40:54.636Z,15.80
2018-05-16T11:42:48.112Z,16.20
2018-05-16T11:43:48.139Z,15.50
2018-05-16T11:45:41.620Z,15.70
2018-05-16T11:46:41.645Z,14.60
2018-05-16T11:48:35.122Z,16.10
2018-05-16T11:49:35.145Z,16.10
2018-05-16T11:51:28.630Z,14.90
2018-05-16T11:52:28.649Z,15.70
2018-05-16T11:54:22.133Z,15.90
2018-05-16T11:55:22.155Z,14.80
2018-05-16T11:57:15.636Z,15.10
2018-05-16T11:58:15.659Z,15.30
2018-05-16T12:00:09.141Z,16.40
2018-05-16T12:01:09.162Z,13.80
2018-05-16T12:03:02.641Z,14.30
2018-05-16T12:04:02.662Z,13.30
2018-05-16T12:05:56.137Z,13.10
2018-05-16T12:06:56.161Z,15.90
2018-05-16T12:08:49.633Z,14.00
2018-05-16T12:09:49.654Z,14.10
2018-05-16T12:11:43.135Z,15.70
2018-05-16T12:12:43.155Z,12.30
2018-05-16T12:14:36.668Z,14.40
2018-05-16T12:15:36.659Z,14.90
2018-05-16T12:17:30.137Z,14.60
2018-05-16T12:18:30.155Z,15.90
2018-05-16T12:20:23.637Z,15.60
2018-05-16T12:21:23.656Z,14.40
2018-05-16T12:23:17.166Z,14.00
2018-05-16T12:24:17.156Z,12.90
2018-05-16T12:26:10.645Z,13.80
2018-05-16T12:27:10.671Z,13.40
2018-05-16T12:29:04.257Z,13.80
2018-05-16T12:30:04.163Z,14.70
2018-05-16T12:31:57.643Z,14.50
2018-05-16T12:32:57.661Z,12.50
2018-05-16T12:34:51.131Z,14.40
2018-05-16T12:35:51.152Z,13.20
2018-05-16T12:37:44.625Z,14.70
2018-05-16T12:38:44.642Z,13.60
2018-05-16T12:40:38.118Z,13.60
2018-05-16T12:41:38.135Z,14.70
2018-05-16T12:43:31.614Z,13.40
2018-05-16T12:44:31.637Z,13.50
2018-05-16T12:46:25.116Z,13.70
2018-05-16T12:47:25.137Z,13.30
2018-05-16T12:49:18.618Z,13.10
2018-05-16T12:50:18.639Z,12.10
2018-05-16T12:52:12.130Z,12.00
2018-05-16T12:53:12.152Z,13.00
2018-05-16T12:55:05.634Z,12.80
2018-05-16T12:56:05.649Z,12.60
2018-05-16T12:57:59.132Z,12.60
2018-05-16T12:58:59.156Z,14.10
2018-05-16T13:00:52.630Z,12.00
2018-05-16T13:01:52.652Z,12.20
2018-05-16T13:03:46.120Z,13.00
2018-05-16T13:04:46.147Z,13.00
2018-05-16T13:06:39.623Z,12.00
2018-05-16T13:07:39.644Z,12.40
2018-05-16T13:09:33.129Z,12.00
2018-05-16T13:10:33.147Z,12.50
2018-05-16T13:12:26.628Z,10.80
2018-05-16T13:13:26.648Z,12.80
2018-05-16T13:15:20.140Z,12.40
2018-05-16T13:16:20.204Z,12.20
2018-05-16T13:18:13.672Z,11.70
2018-05-16T13:19:13.749Z,11.20
2018-05-16T13:21:07.171Z,10.60
2018-05-16T13:22:07.196Z,11.60
2018-05-16T13:24:00.713Z,11.80
2018-05-16T13:25:00.733Z,10.30
2018-05-16T13:26:54.267Z,11.30
2018-05-16T13:27:54.240Z,13.70
2018-05-16T13:29:47.754Z,12.50
2018-05-16T13:30:47.771Z,9.40
2018-05-16T13:32:41.330Z,13.50
2018-05-16T13:33:41.342Z,15.50
2018-05-16T13:35:34.917Z,12.80
2018-05-16T13:36:34.918Z,14.70
2018-05-16T13:38:28.473Z,12.40
2018-05-16T13:39:28.485Z,10.90
2018-05-16T13:41:21.520Z,10.70
2018-05-16T13:42:21.541Z,9.20
2018-05-16T13:44:15.095Z,7.90
2018-05-16T13:45:15.114Z,8.90
2018-05-16T13:47:08.665Z,7.90
2018-05-16T13:48:08.681Z,8.20
2018-05-16T13:50:02.237Z,9.20
2018-05-16T13:51:02.253Z,7.40
2018-05-16T13:52:55.799Z,6.90
2018-05-16T13:53:55.855Z,7.10
2018-05-16T13:55:49.371Z,9.20
2018-05-16T13:56:49.393Z,10.00
2018-05-16T13:58:42.942Z,7.50
2018-05-16T13:59:42.992Z,7.10
2018-05-16T14:01:36.590Z,602.80
2018-05-16T14:02:36.581Z,277.90
2018-05-16T14:04:30.082Z,68.20
2018-05-16T14:05:30.109Z,61.60
2018-05-16T14:07:23.657Z,62.90
2018-05-16T14:08:23.733Z,56.50
2018-05-16T14:10:17.613Z,50.50
2018-05-16T14:11:17.384Z,49.00
2018-05-16T14:12:17.231Z,44.60
2018-05-16T14:13:17.293Z,46.40
2018-05-16T14:14:17.350Z,43.90
2018-05-16T14:15:17.404Z,45.40
2018-05-16T14:16:17.350Z,46.00
2018-05-16T14:17:17.386Z,43.90
2018-05-16T14:18:17.424Z,35.60
2018-05-16T14:20:11.021Z,32.30
2018-05-16T14:21:10.969Z,32.30
2018-05-16T14:23:04.016Z,25.50
2018-05-16T14:24:04.027Z,23.40
2018-05-16T14:25:57.583Z,25.50
2018-05-16T14:26:57.597Z,22.10
2018-05-16T14:28:52.085Z,21.70
2018-05-16T14:29:51.168Z,25.60
2018-05-16T14:31:44.723Z,20.20
2018-05-16T14:32:44.738Z,17.70
2018-05-16T14:34:38.287Z,18.00
2018-05-16T14:35:38.309Z,16.90
2018-05-16T14:37:31.858Z,16.40
2018-05-16T14:38:31.880Z,15.20
2018-05-16T14:40:25.428Z,19.10
2018-05-16T14:41:25.449Z,15.00
2018-05-16T14:43:19.011Z,16.90
2018-05-16T14:44:19.022Z,14.40
2018-05-16T14:46:12.568Z,15.50
2018-05-16T14:47:12.622Z,11.70
2018-05-16T14:49:06.146Z,12.80
2018-05-16T14:50:06.161Z,12.60
2018-05-16T14:51:59.709Z,10.40
2018-05-16T14:52:59.731Z,10.40
2018-05-16T14:54:53.284Z,11.80
2018-05-16T14:55:53.302Z,9.30
2018-05-16T14:57:46.852Z,9.90
2018-05-16T14:58:46.873Z,9.00
2018-05-16T15:00:40.431Z,8.80
2018-05-16T15:01:40.480Z,9.10
2018-05-16T15:03:33.996Z,8.20
2018-05-16T15:04:34.014Z,8.20
2018-05-16T15:06:28.034Z,7.90
2018-05-16T15:07:27.678Z,7.50
2018-05-16T15:09:21.133Z,7.80
2018-05-16T15:10:21.158Z,8.90
2018-05-16T15:12:14.702Z,9.20
2018-05-16T15:13:14.798Z,8.20
2018-05-16T15:15:08.275Z,7.30
2018-05-16T15:16:08.297Z,9.50
2018-05-16T15:18:01.856Z,11.00
2018-05-16T15:19:01.887Z,8.90
2018-05-16T15:20:55.416Z,6.60
2018-05-16T15:21:55.437Z,6.70
2018-05-16T15:23:48.998Z,7.00
2018-05-16T15:24:49.008Z,6.90
2018-05-16T15:26:42.549Z,5.80
2018-05-16T15:27:42.579Z,7.10
2018-05-16T15:29:36.126Z,7.10
2018-05-16T15:30:36.145Z,7.20
2018-05-16T15:32:29.698Z,6.00
2018-05-16T15:33:29.719Z,7.80
2018-05-16T15:35:23.277Z,6.90
2018-05-16T15:36:23.290Z,6.10
2018-05-16T15:38:16.840Z,6.80
2018-05-16T15:39:16.860Z,6.50
2018-05-16T15:41:10.868Z,6.20
2018-05-16T15:42:10.434Z,6.10
2018-05-16T15:44:03.984Z,11.20
2018-05-16T15:45:04.000Z,21.20
2018-05-16T15:46:57.044Z,11.80
2018-05-16T15:47:57.061Z,11.50
2018-05-16T15:49:50.607Z,9.40
2018-05-16T15:50:50.631Z,11.00
2018-05-16T15:52:44.180Z,10.80
2018-05-16T15:53:44.199Z,13.10
2018-05-16T15:54:44.233Z,17.10
2018-05-16T15:55:44.268Z,13.80
2018-05-16T15:56:44.301Z,15.10
2018-05-16T15:57:44.335Z,10.00
2018-05-16T15:58:44.373Z,17.80
2018-05-16T15:59:44.407Z,11.40
2018-05-16T16:00:44.438Z,9.40
2018-05-16T16:01:44.473Z,12.50
2018-05-16T16:02:44.505Z,12.30
2018-05-16T16:03:44.540Z,12.70
2018-05-16T16:04:44.575Z,11.30
2018-05-16T16:05:44.613Z,12.30
2018-05-16T16:07:38.142Z,11.40
2018-05-16T16:08:38.165Z,12.80
2018-05-16T16:10:31.719Z,10.40
2018-05-16T16:11:31.735Z,13.90
2018-05-16T16:13:25.283Z,13.40
2018-05-16T16:14:25.304Z,9.30
2018-05-16T16:16:18.854Z,54.00
2018-05-16T16:17:18.875Z,33.70